WB7UVH Weather Reports


Display with metric or nautical units.
time (UTC)temp
F
wind
direction
speed
MPH
gust
MPH
rain 1hr
in
rain 24hr
in
rain mn
in
humidity
%
barometer
mb
20190216110006 34 73 1.0 3.0 0.01 0.67 0.06 100 1012.9
20190216100009 34 52 3.0 6.0 0.03 0.66 0.05 100 1012.6
20190216090007 34 89 3.0 9.0 0.02 0.63 0.02 100 1012.5
20190216080007 34 108 0.0 3.0 0.01 0.61 0.00 100 1012.3
20190216070009 34 48 1.0 3.0 0.04 0.60 0.60 100 1012.2
20190216060006 34 52 2.0 3.0 0.09 0.57 0.56 100 1012.2
20190216050007 35 44 5.0 7.0 0.05 0.48 0.47 100 1011.7
20190216040008 35 57 2.0 8.0 0.04 0.43 0.42 100 1011.7
20190216030006 35 36 4.0 8.0 0.02 0.40 0.38 100 1011.7
20190216020007 36 113 3.0 13.0 0.02 0.40 0.36 100 1011.3
20190216010007 36 40 3.0 9.0 0.02 0.39 0.34 100 1011.1
20190216000007 36 125 1.0 6.0 0.03 0.38 0.32 100 1011.6
20190215230007 37 66 5.0 13.0 0.04 0.36 0.29 100 1011.0
20190215220008 38 96 2.0 8.0 0.05 0.35 0.25 100 1010.9
20190215210006 37 68 4.0 10.0 0.08 0.36 0.20 100 1011.1
20190215200006 36 110 2.0 7.0 0.07 0.29 0.12 100 1011.3
20190215190010 35 87 1.0 3.0 0.04 0.23 0.05 100 1011.0
20190215180006 33 53 3.0 7.0 0.00 0.19 0.01 100 1010.4
20190215170007 33 73 3.0 7.0 0.00 0.19 0.01 100 1009.6
20190215160008 32 59 4.0 12.0 0.00 0.19 0.01 100 1008.5
20190215150007 32 42 4.0 10.0 0.01 0.19 0.01 100 1007.4
20190215140006 32 47 2.0 6.0 0.00 0.18 0.00 100 1006.6
20190215130008 32 52 3.0 12.0 0.00 0.18 0.00 100 1006.1
20190215120006 33 114 4.0 12.0 0.00 0.18 0.00 100 1005.2